createdAt,value
2019-05-06T00:02:13.838Z,99030.75
2019-05-06T00:07:16.990Z,99030.03
2019-05-06T00:12:19.932Z,99032.58
2019-05-06T00:17:23.945Z,99028.54
2019-05-06T00:22:27.234Z,99024.29
2019-05-06T00:27:56.109Z,99018.81
2019-05-06T00:32:59.175Z,99024.98
2019-05-06T00:38:04.382Z,99026.80
2019-05-06T00:43:08.615Z,99027.10
2019-05-06T00:48:13.854Z,99030.24
2019-05-06T00:53:18.783Z,99020.13
2019-05-06T00:58:23.779Z,99022.17
2019-05-06T01:03:28.690Z,99023.88
2019-05-06T01:08:31.951Z,99027.44
2019-05-06T01:13:40.540Z,99026.30
2019-05-06T01:18:43.610Z,99019.53
2019-05-06T01:23:46.848Z,99021.03
2019-05-06T01:28:50.369Z,99029.05
2019-05-06T01:33:53.668Z,99027.09
2019-05-06T01:39:31.619Z,99024.64
2019-05-06T01:44:34.581Z,99019.58
2019-05-06T01:49:37.559Z,99020.69
2019-05-06T01:54:40.610Z,99024.52
2019-05-06T01:59:44.372Z,99031.91
2019-05-06T02:04:47.485Z,99037.08
2019-05-06T02:09:50.523Z,99034.53
2019-05-06T02:14:54.346Z,99031.64
2019-05-06T02:19:57.427Z,99029.91
2019-05-06T02:25:05.980Z,99035.09
2019-05-06T02:30:25.211Z,99033.80
2019-05-06T02:35:41.509Z,99030.16
2019-05-06T02:40:44.536Z,99038.26
2019-05-06T02:45:47.489Z,99047.08
2019-05-06T02:51:03.864Z,99044.15
2019-05-06T02:56:07.285Z,99038.59
2019-05-06T03:01:13.392Z,99035.27
2019-05-06T03:06:15.413Z,99031.70
2019-05-06T03:11:18.456Z,99028.50
2019-05-06T03:16:23.783Z,99037.19
2019-05-06T03:21:45.063Z,99035.37
2019-05-06T03:26:56.136Z,99037.98
2019-05-06T03:31:56.357Z,99025.36
2019-05-06T03:36:59.726Z,99025.27
2019-05-06T03:42:04.675Z,99029.80
2019-05-06T03:47:27.165Z,99020.99
2019-05-06T03:52:30.157Z,99015.66
2019-05-06T03:57:36.173Z,99024.75
2019-05-06T04:02:39.912Z,99023.94
2019-05-06T04:07:46.109Z,99031.02
2019-05-06T04:12:53.552Z,99036.47
2019-05-06T04:17:59.911Z,99035.98
2019-05-06T04:23:23.527Z,99036.19
2019-05-06T04:28:29.289Z,99035.38
2019-05-06T04:33:33.517Z,99040.72
2019-05-06T04:38:37.047Z,99037.19
2019-05-06T04:43:40.421Z,99044.18
2019-05-06T04:48:45.397Z,99045.27
2019-05-06T04:53:48.454Z,99051.84
2019-05-06T04:58:53.910Z,99058.11
2019-05-06T05:03:56.878Z,99053.66
2019-05-06T05:09:02.570Z,99056.31
2019-05-06T05:14:25.940Z,99049.42
2019-05-06T05:19:32.684Z,99042.48
2019-05-06T05:24:37.866Z,99051.62
2019-05-06T05:29:42.367Z,99055.28
2019-05-06T05:34:45.818Z,99059.63
2019-05-06T05:39:49.300Z,99065.63
2019-05-06T05:44:53.467Z,99067.12
2019-05-06T05:50:22.823Z,99060.64
2019-05-06T05:55:26.561Z,99048.77
2019-05-06T06:00:32.472Z,99061.12
2019-05-06T06:05:35.057Z,99069.43
2019-05-06T06:10:49.536Z,99070.75
2019-05-06T06:16:02.882Z,99075.91
2019-05-06T06:21:32.027Z,99074.31
2019-05-06T06:26:34.983Z,99057.67
2019-05-06T06:32:09.374Z,99063.89
2019-05-06T06:37:33.054Z,99060.39
2019-05-06T06:42:36.028Z,99063.20
2019-05-06T06:47:39.180Z,99058.15
2019-05-06T06:52:42.931Z,99059.80
2019-05-06T06:58:22.600Z,99052.97
2019-05-06T07:03:37.772Z,99045.22
2019-05-06T07:08:42.615Z,99044.11
2019-05-06T07:13:53.244Z,99041.41
2019-05-06T07:18:56.616Z,99046.70
2019-05-06T07:23:59.578Z,99049.47
2019-05-06T07:29:03.901Z,99053.57
2019-05-06T07:34:07.728Z,99055.78
2019-05-06T07:39:14.750Z,99050.06
2019-05-06T07:44:33.339Z,99051.73
2019-05-06T07:49:36.560Z,99061.13
2019-05-06T07:54:39.572Z,99068.52
2019-05-06T07:59:43.009Z,99066.91
2019-05-06T08:04:46.156Z,99067.85
2019-05-06T08:09:49.120Z,99073.80
2019-05-06T08:14:52.501Z,99075.84
2019-05-06T08:19:55.872Z,99074.73
2019-05-06T08:24:58.965Z,99092.42
2019-05-06T08:30:02.624Z,99104.19
2019-05-06T08:35:06.182Z,99116.09
2019-05-06T08:40:12.000Z,99114.44
2019-05-06T08:45:15.501Z,99111.16
2019-05-06T08:50:43.902Z,99115.37
2019-05-06T08:55:47.563Z,99100.66
2019-05-06T09:00:57.615Z,99097.50
2019-05-06T09:06:02.998Z,99101.26
2019-05-06T09:11:05.586Z,99087.05
2019-05-06T09:16:08.673Z,99079.19
2019-05-06T09:21:12.268Z,99066.14
2019-05-06T09:26:18.287Z,99056.61
2019-05-06T09:31:24.931Z,99072.41
2019-05-06T09:36:39.824Z,99070.04
2019-05-06T09:41:32.767Z,99074.30
2019-05-06T09:46:35.786Z,99070.17
2019-05-06T09:51:39.456Z,99071.67
2019-05-06T09:56:47.740Z,99076.93
2019-05-06T10:01:52.855Z,99080.44
2019-05-06T10:06:59.778Z,99078.97
2019-05-06T10:12:02.045Z,99077.12
2019-05-06T10:17:05.549Z,99070.98
2019-05-06T10:22:08.521Z,99062.05
2019-05-06T10:27:12.084Z,99068.29
2019-05-06T10:32:27.064Z,99074.64
2019-05-06T10:37:42.244Z,99068.82
2019-05-06T10:43:13.215Z,99077.88
2019-05-06T10:48:16.182Z,99073.91
2019-05-06T10:53:23.632Z,99073.23
2019-05-06T10:58:26.762Z,99072.55
2019-05-06T11:03:29.732Z,99070.22
2019-05-06T11:08:32.842Z,99058.54
2019-05-06T11:13:36.012Z,99054.47
2019-05-06T11:18:39.098Z,99054.71
2019-05-06T11:23:42.351Z,99047.19
2019-05-06T11:28:49.326Z,99049.44
2019-05-06T11:34:00.166Z,99047.72
2019-05-06T11:39:05.268Z,99049.27
2019-05-06T11:44:09.178Z,99040.91
2019-05-06T11:49:12.625Z,99040.69
2019-05-06T11:54:20.337Z,99050.29
2019-05-06T11:59:22.692Z,99045.52
2019-05-06T12:04:26.087Z,99030.64
2019-05-06T12:09:29.146Z,99030.06
2019-05-06T12:14:32.129Z,99030.67
2019-05-06T12:19:35.128Z,99024.53
2019-05-06T12:24:38.087Z,99014.95
2019-05-06T12:29:42.857Z,99017.89
2019-05-06T12:34:46.208Z,99014.50
2019-05-06T12:39:53.558Z,99005.95
2019-05-06T12:45:14.886Z,99003.52
2019-05-06T12:50:18.024Z,98996.98
2019-05-06T12:55:25.207Z,99005.41
2019-05-06T13:00:30.829Z,99007.59
2019-05-06T13:05:33.820Z,99013.84
2019-05-06T13:10:36.773Z,99016.93
2019-05-06T13:15:39.897Z,99007.71
2019-05-06T13:20:50.077Z,99008.09
2019-05-06T13:25:48.046Z,99008.31
2019-05-06T13:30:53.174Z,99004.95
2019-05-06T13:35:56.501Z,99014.67
2019-05-06T13:40:59.874Z,99009.00
2019-05-06T13:46:07.388Z,99012.63
2019-05-06T13:51:14.279Z,99004.55
2019-05-06T13:56:16.702Z,99002.03
2019-05-06T14:01:22.933Z,99004.41
2019-05-06T14:06:26.540Z,98995.66
2019-05-06T14:11:29.886Z,99007.76
2019-05-06T14:16:33.572Z,99012.97
2019-05-06T14:21:36.675Z,99009.89
2019-05-06T14:26:45.753Z,99017.02
2019-05-06T14:31:52.490Z,99019.75
2019-05-06T14:36:54.853Z,99019.47
2019-05-06T14:41:57.830Z,99020.73
2019-05-06T14:47:09.227Z,99023.66
2019-05-06T14:52:13.158Z,99016.98
2019-05-06T14:57:17.594Z,99020.63
2019-05-06T15:02:26.083Z,99020.29
2019-05-06T15:07:29.010Z,99017.17
2019-05-06T15:12:33.436Z,99032.77
2019-05-06T15:17:36.975Z,99029.92
2019-05-06T15:22:42.062Z,99024.54
2019-05-06T15:27:45.294Z,99031.54
2019-05-06T15:32:48.294Z,99032.06
2019-05-06T15:38:02.775Z,99029.06
2019-05-06T15:43:05.865Z,99027.95
2019-05-06T15:48:08.942Z,99032.86
2019-05-06T15:53:12.631Z,99024.92
2019-05-06T15:58:15.768Z,99033.09
2019-05-06T16:03:18.770Z,99037.01
2019-05-06T16:08:24.234Z,99036.03
2019-05-06T16:13:26.830Z,99030.48
2019-05-06T16:18:29.837Z,99034.83
2019-05-06T16:23:42.312Z,99036.30
2019-05-06T16:28:45.565Z,99035.52
2019-05-06T16:33:48.647Z,99040.38
2019-05-06T16:38:52.556Z,99043.55
2019-05-06T16:43:57.340Z,99043.55
2019-05-06T16:49:02.307Z,99038.63
2019-05-06T16:54:05.284Z,99045.58
2019-05-06T16:59:08.435Z,99039.29
2019-05-06T17:04:19.583Z,99049.44
2019-05-06T17:09:27.038Z,99050.70
2019-05-06T17:14:27.437Z,99051.23
2019-05-06T17:19:32.377Z,99065.00
2019-05-06T17:24:35.588Z,99059.78
2019-05-06T17:29:55.467Z,99062.36
2019-05-06T17:34:58.684Z,99063.27
2019-05-06T17:40:07.960Z,99063.12
2019-05-06T17:45:25.914Z,99066.21
2019-05-06T17:50:28.845Z,99060.47
2019-05-06T17:55:32.795Z,99067.47
2019-05-06T18:00:36.115Z,99069.38
2019-05-06T18:05:39.108Z,99074.88
2019-05-06T18:10:42.722Z,99086.11
2019-05-06T18:15:45.968Z,99082.01
2019-05-06T18:20:48.990Z,99094.92
2019-05-06T18:25:53.025Z,99101.75
2019-05-06T18:30:56.228Z,99106.74
2019-05-06T18:35:59.279Z,99107.31
2019-05-06T18:41:02.363Z,99108.05
2019-05-06T18:46:05.402Z,99115.00
2019-05-06T18:51:08.605Z,99115.67
2019-05-06T18:56:12.738Z,99133.69
2019-05-06T19:01:15.956Z,99131.44
2019-05-06T19:06:19.076Z,99133.66
2019-05-06T19:11:22.419Z,99137.50
2019-05-06T19:16:25.693Z,99151.40
2019-05-06T19:21:28.963Z,99153.45
2019-05-06T19:26:32.730Z,99156.20
2019-05-06T19:31:36.152Z,99160.78
2019-05-06T19:36:39.161Z,99156.53
2019-05-06T19:41:42.293Z,99161.27
2019-05-06T19:46:45.336Z,99167.28
2019-05-06T19:51:48.466Z,99168.23
2019-05-06T19:56:52.720Z,99174.35
2019-05-06T20:01:56.201Z,99173.41
2019-05-06T20:07:05.244Z,99169.19
2019-05-06T20:12:14.330Z,99164.42
2019-05-06T20:17:17.348Z,99163.28
2019-05-06T20:22:20.458Z,99158.66
2019-05-06T20:27:23.685Z,99141.66
2019-05-06T20:32:26.957Z,99140.02
2019-05-06T20:37:30.092Z,99136.28
2019-05-06T20:42:33.047Z,99137.16
2019-05-06T20:47:36.598Z,99149.78
2019-05-06T20:52:42.287Z,99173.73
2019-05-06T20:57:44.993Z,99176.71
2019-05-06T21:02:47.973Z,99169.92
2019-05-06T21:07:52.623Z,99169.19
2019-05-06T21:12:55.795Z,99174.19
2019-05-06T21:18:03.602Z,99180.34
2019-05-06T21:23:04.145Z,99181.37
2019-05-06T21:28:07.181Z,99185.73
2019-05-06T21:33:12.247Z,99189.91
2019-05-06T21:38:15.191Z,99196.81
2019-05-06T21:43:18.298Z,99195.16
2019-05-06T21:48:22.221Z,99194.17
2019-05-06T21:53:25.261Z,99181.33
2019-05-06T21:58:28.236Z,99191.38
2019-05-06T22:03:32.654Z,99197.17
2019-05-06T22:08:35.906Z,99195.66
2019-05-06T22:13:38.995Z,99192.44
2019-05-06T22:18:43.226Z,99181.88
2019-05-06T22:23:57.755Z,99176.03
2019-05-06T22:29:02.059Z,99173.31
2019-05-06T22:34:05.220Z,99173.61
2019-05-06T22:39:08.235Z,99180.05
2019-05-06T22:44:14.032Z,99181.19
2019-05-06T22:49:16.033Z,99182.31
2019-05-06T22:54:18.988Z,99181.83
2019-05-06T22:59:25.003Z,99184.09
2019-05-06T23:04:29.760Z,99189.20
2019-05-06T23:09:32.776Z,99190.03
2019-05-06T23:14:37.224Z,99187.44
2019-05-06T23:19:42.623Z,99192.95
2019-05-06T23:24:45.295Z,99194.70
2019-05-06T23:29:48.646Z,99186.72
2019-05-06T23:34:52.346Z,99196.45
2019-05-06T23:40:52.164Z,99192.30
2019-05-06T23:46:52.830Z,99201.05
2019-05-06T23:52:52.013Z,99193.45
2019-05-06T23:57:53.675Z,99195.88
